createdAt,value
2023-02-22T00:06:26.576Z,61.57
2023-02-22T00:16:29.128Z,60.75
2023-02-22T00:26:33.564Z,62.00
2023-02-22T00:36:37.183Z,63.27
2023-02-22T00:46:39.506Z,65.39
2023-02-22T00:56:43.108Z,65.17
2023-02-22T01:06:45.422Z,65.96
2023-02-22T01:16:47.735Z,66.59
2023-02-22T01:26:51.782Z,68.01
2023-02-22T01:36:54.118Z,65.51
2023-02-22T01:46:57.781Z,64.10
2023-02-22T01:57:07.567Z,65.44
2023-02-22T02:07:13.281Z,66.17
2023-02-22T02:17:20.050Z,67.20
2023-02-22T02:27:24.356Z,67.40
2023-02-22T02:37:41.109Z,66.02
2023-02-22T02:47:47.583Z,65.56
2023-02-22T02:57:49.638Z,66.46
2023-02-22T03:08:14.091Z,66.77
2023-02-22T03:18:22.916Z,66.76
2023-02-22T03:28:27.037Z,65.49
2023-02-22T03:38:32.189Z,66.06
2023-02-22T03:48:44.103Z,66.30
2023-02-22T03:58:50.328Z,66.03
2023-02-22T04:08:54.224Z,66.86
2023-02-22T04:18:57.633Z,66.86
2023-02-22T04:28:59.951Z,67.71
2023-02-22T04:39:09.279Z,67.62
2023-02-22T04:49:11.824Z,67.88
2023-02-22T04:59:16.624Z,65.09
2023-02-22T05:09:21.805Z,63.20
2023-02-22T05:19:24.565Z,63.41
2023-02-22T05:29:26.632Z,64.93
2023-02-22T05:39:29.289Z,64.37
2023-02-22T05:49:31.656Z,64.64
2023-02-22T05:59:34.085Z,67.87
2023-02-22T06:09:36.462Z,66.36
2023-02-22T06:19:40.514Z,65.13
2023-02-22T06:29:46.687Z,67.76
2023-02-22T06:39:49.049Z,67.96
2023-02-22T06:49:55.551Z,66.67
2023-02-22T06:59:57.905Z,66.13
2023-02-22T07:10:00.058Z,65.52
2023-02-22T07:20:02.445Z,63.94
2023-02-22T07:30:09.024Z,63.71
2023-02-22T07:40:12.016Z,63.30
2023-02-22T07:50:16.180Z,63.68
2023-02-22T08:00:29.936Z,63.52
2023-02-22T08:10:33.095Z,64.45
2023-02-22T08:20:36.657Z,62.89
2023-02-22T08:30:40.761Z,65.71
2023-02-22T08:40:43.206Z,62.89
2023-02-22T08:50:45.805Z,61.85
2023-02-22T09:00:48.714Z,61.91
2023-02-22T09:10:51.478Z,65.66
2023-02-22T09:20:54.437Z,61.44
2023-02-22T09:30:56.752Z,58.25
2023-02-22T09:41:07.261Z,58.61
2023-02-22T09:51:15.889Z,56.33
2023-02-22T10:01:26.968Z,56.72
2023-02-22T10:11:35.662Z,53.39
2023-02-22T10:22:07.954Z,51.87
2023-02-22T10:32:28.691Z,50.71
2023-02-22T10:42:31.063Z,46.98
2023-02-22T10:52:34.593Z,44.85
2023-02-22T11:02:36.809Z,44.88
2023-02-22T11:12:41.476Z,43.64
2023-02-22T11:22:43.562Z,41.68
2023-02-22T11:32:48.452Z,42.06
2023-02-22T11:43:08.465Z,40.93
2023-02-22T11:53:32.072Z,39.99
2023-02-22T12:03:46.424Z,41.38
2023-02-22T12:14:15.413Z,39.05
2023-02-22T12:24:24.305Z,37.28
2023-02-22T12:34:36.079Z,37.13
2023-02-22T12:44:40.411Z,37.68
2023-02-22T12:54:45.658Z,35.81
2023-02-22T13:04:48.078Z,36.16
2023-02-22T13:15:00.580Z,35.47
2023-02-22T13:25:20.728Z,34.61
2023-02-22T13:35:55.514Z,34.78
2023-02-22T13:46:33.796Z,34.88
2023-02-22T13:56:36.117Z,34.81
2023-02-22T14:06:41.537Z,35.82
2023-02-22T14:16:44.026Z,36.73
2023-02-22T14:26:57.176Z,35.55
2023-02-22T14:37:11.443Z,36.16
2023-02-22T14:47:41.018Z,36.73
2023-02-22T14:58:11.560Z,36.03
2023-02-22T15:08:17.011Z,36.81
2023-02-22T15:18:34.431Z,34.92
2023-02-22T15:28:38.424Z,36.17
2023-02-22T15:38:43.657Z,35.68
2023-02-22T15:49:07.495Z,36.64
2023-02-22T15:59:15.274Z,36.22
2023-02-22T16:09:26.022Z,37.09
2023-02-22T16:19:40.681Z,38.29
2023-02-22T16:30:00.486Z,38.90
2023-02-22T16:40:05.572Z,40.00
2023-02-22T16:50:08.791Z,40.43
2023-02-22T17:00:31.105Z,41.15
2023-02-22T17:10:35.489Z,41.44
2023-02-22T17:20:39.542Z,41.23
2023-02-22T17:30:43.944Z,41.62
2023-02-22T17:40:48.153Z,43.06
2023-02-22T17:50:50.597Z,44.09
2023-02-22T18:00:59.029Z,44.32
2023-02-22T18:11:05.184Z,44.91
2023-02-22T18:21:07.923Z,45.14
2023-02-22T18:31:15.787Z,46.81
2023-02-22T18:41:19.370Z,46.87
2023-02-22T18:51:22.315Z,49.77
2023-02-22T19:01:25.099Z,49.61
2023-02-22T19:11:27.848Z,51.22
2023-02-22T19:21:31.543Z,49.73
2023-02-22T19:31:36.849Z,50.43
2023-02-22T19:41:39.491Z,50.42
2023-02-22T19:51:42.712Z,51.82
2023-02-22T20:01:45.011Z,51.55
2023-02-22T20:11:47.675Z,51.70
2023-02-22T20:21:52.245Z,52.84
2023-02-22T20:32:00.013Z,54.35
2023-02-22T20:42:04.778Z,53.57
2023-02-22T20:52:07.109Z,55.40
2023-02-22T21:02:10.697Z,56.63
2023-02-22T21:12:13.825Z,58.24
2023-02-22T21:22:16.185Z,56.20
2023-02-22T21:32:18.377Z,57.79
2023-02-22T21:42:21.003Z,55.78
2023-02-22T21:52:25.775Z,57.67
2023-02-22T22:02:29.418Z,56.29
2023-02-22T22:12:39.218Z,57.21
2023-02-22T22:22:46.598Z,57.14
2023-02-22T22:32:48.956Z,56.59
2023-02-22T22:42:52.028Z,57.56
2023-02-22T22:52:55.641Z,56.98
2023-02-22T23:02:58.201Z,58.51
2023-02-22T23:13:00.560Z,57.42
2023-02-22T23:23:03.678Z,59.21
2023-02-22T23:33:05.754Z,57.79
2023-02-22T23:43:10.286Z,58.61
2023-02-22T23:53:15.129Z,60.95
